KLHM/LHM METAR and TAF weather

Enter ICAO airport designator
Station Type Date Time Source
KLHM METAR 2019/08/20 09:55 UTC NOAA

KLHM 200955Z AUTO 17003KT 10SM CLR 17/13 A2992 RMK AO1


Station Type Date Time Source
KLHM Decoded METAR 2019/08/20 09:55 UTC NOAA

Station name not available
Aug 20, 2019 - 05:55 AM EDT / 2019.08.20 0955 UTC
Wind: from the S (170 degrees) at 3 MPH (3 KT):0
Visibility: 10 mile(s):0
Sky conditions: clear
Temperature: 62 F (17 C)
Dew Point: 55 F (13 C)
Relative Humidity: 77%
Pressure (altimeter): 29.92 in. Hg (1013 hPa)
ob: KLHM 200955Z AUTO 17003KT 10SM CLR 17/13 A2992 RMK AO1
cycle: 10

Station Type Date Time Source
KLHM TAF UTC NOAA

Error!

Example: see airport list